sensor_id;sensor_type;location;lat;lon;timestamp;temperature;humidity
21844;DHT22;11084;52.482;9.108;2022-11-30T00:01:29;5.50;99.90
21844;DHT22;11084;52.482;9.108;2022-11-30T00:03:56;5.50;99.90
21844;DHT22;11084;52.482;9.108;2022-11-30T00:06:23;5.50;99.90
21844;DHT22;11084;52.482;9.108;2022-11-30T00:08:57;5.50;99.90
21844;DHT22;11084;52.482;9.108;2022-11-30T00:11:26;5.50;99.90
21844;DHT22;11084;52.482;9.108;2022-11-30T00:13:53;5.50;99.90
21844;DHT22;11084;52.482;9.108;2022-11-30T00:16:19;5.50;99.90
21844;DHT22;11084;52.482;9.108;2022-11-30T00:21:13;5.50;99.90
21844;DHT22;11084;52.482;9.108;2022-11-30T00:23:41;5.50;99.90
21844;DHT22;11084;52.482;9.108;2022-11-30T00:26:10;5.60;99.90
21844;DHT22;11084;52.482;9.108;2022-11-30T00:31:14;5.50;99.90
21844;DHT22;11084;52.482;9.108;2022-11-30T00:33:42;5.60;99.90
21844;DHT22;11084;52.482;9.108;2022-11-30T00:36:17;5.50;99.90
21844;DHT22;11084;52.482;9.108;2022-11-30T00:38:45;5.50;99.90
21844;DHT22;11084;52.482;9.108;2022-11-30T00:41:12;5.50;99.90
21844;DHT22;11084;52.482;9.108;2022-11-30T00:43:38;5.50;99.90
21844;DHT22;11084;52.482;9.108;2022-11-30T00:46:04;5.40;99.90
21844;DHT22;11084;52.482;9.108;2022-11-30T00:48:35;5.40;99.90
21844;DHT22;11084;52.482;9.108;2022-11-30T00:51:02;5.40;99.90
21844;DHT22;11084;52.482;9.108;2022-11-30T00:53:29;5.40;99.90
21844;DHT22;11084;52.482;9.108;2022-11-30T00:55:54;5.40;99.90
21844;DHT22;11084;52.482;9.108;2022-11-30T00:58:21;5.40;99.90
21844;DHT22;11084;52.482;9.108;2022-11-30T01:00:47;5.40;99.90
21844;DHT22;11084;52.482;9.108;2022-11-30T01:03:15;5.40;99.90
21844;DHT22;11084;52.482;9.108;2022-11-30T01:05:42;5.50;99.90
21844;DHT22;11084;52.482;9.108;2022-11-30T01:08:12;5.40;99.90
21844;DHT22;11084;52.482;9.108;2022-11-30T01:10:40;5.40;99.90
21844;DHT22;11084;52.482;9.108;2022-11-30T01:15:38;5.40;99.90
21844;DHT22;11084;52.482;9.108;2022-11-30T01:18:06;5.40;99.90
21844;DHT22;11084;52.482;9.108;2022-11-30T01:20:32;5.40;99.90
21844;DHT22;11084;52.482;9.108;2022-11-30T01:23:00;5.40;99.90
21844;DHT22;11084;52.482;9.108;2022-11-30T01:25:26;5.40;99.90
21844;DHT22;11084;52.482;9.108;2022-11-30T01:27:52;5.40;99.90
21844;DHT22;11084;52.482;9.108;2022-11-30T01:30:18;5.40;99.90
21844;DHT22;11084;52.482;9.108;2022-11-30T01:35:10;5.40;99.90
21844;DHT22;11084;52.482;9.108;2022-11-30T01:37:36;5.40;99.90
21844;DHT22;11084;52.482;9.108;2022-11-30T01:40:02;5.40;99.90
21844;DHT22;11084;52.482;9.108;2022-11-30T01:42:29;5.40;99.90
21844;DHT22;11084;52.482;9.108;2022-11-30T01:44:56;5.30;99.90
21844;DHT22;11084;52.482;9.108;2022-11-30T01:47:35;5.30;99.90
21844;DHT22;11084;52.482;9.108;2022-11-30T01:50:17;5.30;99.90
21844;DHT22;11084;52.482;9.108;2022-11-30T01:52:52;5.30;99.90
21844;DHT22;11084;52.482;9.108;2022-11-30T02:00:38;5.30;99.90
21844;DHT22;11084;52.482;9.108;2022-11-30T02:03:27;5.30;99.90
21844;DHT22;11084;52.482;9.108;2022-11-30T02:05:58;5.30;99.90
21844;DHT22;11084;52.482;9.108;2022-11-30T02:08:26;5.30;99.90
21844;DHT22;11084;52.482;9.108;2022-11-30T02:10:59;5.20;99.90
21844;DHT22;11084;52.482;9.108;2022-11-30T02:19:28;5.20;99.90
21844;DHT22;11084;52.482;9.108;2022-11-30T02:26:16;5.10;99.90
21844;DHT22;11084;52.482;9.108;2022-11-30T02:29:03;5.10;99.90
21844;DHT22;11084;52.482;9.108;2022-11-30T02:31:54;5.10;99.90
21844;DHT22;11084;52.482;9.108;2022-11-30T02:34:38;5.10;99.90
21844;DHT22;11084;52.482;9.108;2022-11-30T02:37:07;5.10;99.90
21844;DHT22;11084;52.482;9.108;2022-11-30T02:39:34;5.10;99.90
21844;DHT22;11084;52.482;9.108;2022-11-30T02:42:00;5.10;99.90
21844;DHT22;11084;52.482;9.108;2022-11-30T02:44:27;5.00;99.90
21844;DHT22;11084;52.482;9.108;2022-11-30T02:50:32;5.00;99.90
21844;DHT22;11084;52.482;9.108;2022-11-30T02:53:05;5.00;99.90
21844;DHT22;11084;52.482;9.108;2022-11-30T02:55:32;5.00;99.90
21844;DHT22;11084;52.482;9.108;2022-11-30T02:57:59;5.00;99.90
21844;DHT22;11084;52.482;9.108;2022-11-30T03:00:25;5.00;99.90
21844;DHT22;11084;52.482;9.108;2022-11-30T03:02:51;5.00;99.90
21844;DHT22;11084;52.482;9.108;2022-11-30T03:07:43;5.00;99.90
21844;DHT22;11084;52.482;9.108;2022-11-30T03:10:09;5.00;99.90
21844;DHT22;11084;52.482;9.108;2022-11-30T03:12:35;5.00;99.90
21844;DHT22;11084;52.482;9.108;2022-11-30T03:15:02;5.00;99.90
21844;DHT22;11084;52.482;9.108;2022-11-30T03:17:29;4.90;99.90
21844;DHT22;11084;52.482;9.108;2022-11-30T03:19:54;4.90;99.90
21844;DHT22;11084;52.482;9.108;2022-11-30T03:22:20;5.00;99.90
21844;DHT22;11084;52.482;9.108;2022-11-30T03:24:46;5.00;99.90
21844;DHT22;11084;52.482;9.108;2022-11-30T03:27:13;4.90;99.90
21844;DHT22;11084;52.482;9.108;2022-11-30T03:34:31;4.90;99.90
21844;DHT22;11084;52.482;9.108;2022-11-30T03:36:58;5.00;99.90
21844;DHT22;11084;52.482;9.108;2022-11-30T03:39:24;4.90;99.90
21844;DHT22;11084;52.482;9.108;2022-11-30T03:41:50;4.90;99.90
21844;DHT22;11084;52.482;9.108;2022-11-30T03:44:16;4.90;99.90
21844;DHT22;11084;52.482;9.108;2022-11-30T03:46:43;4.90;99.90
21844;DHT22;11084;52.482;9.108;2022-11-30T03:49:09;4.90;99.90
21844;DHT22;11084;52.482;9.108;2022-11-30T03:51:35;4.90;99.90
21844;DHT22;11084;52.482;9.108;2022-11-30T03:54:01;4.90;99.90
21844;DHT22;11084;52.482;9.108;2022-11-30T03:58:53;4.80;99.90
21844;DHT22;11084;52.482;9.108;2022-11-30T04:01:20;4.80;99.90
21844;DHT22;11084;52.482;9.108;2022-11-30T04:03:48;4.90;99.90
21844;DHT22;11084;52.482;9.108;2022-11-30T04:06:15;4.90;99.90
21844;DHT22;11084;52.482;9.108;2022-11-30T04:11:10;4.80;99.90
21844;DHT22;11084;52.482;9.108;2022-11-30T04:13:37;4.80;99.90
21844;DHT22;11084;52.482;9.108;2022-11-30T04:16:04;4.80;99.90
21844;DHT22;11084;52.482;9.108;2022-11-30T04:18:32;4.80;99.90
21844;DHT22;11084;52.482;9.108;2022-11-30T04:21:00;4.80;99.90
21844;DHT22;11084;52.482;9.108;2022-11-30T04:23:35;4.80;99.90
21844;DHT22;11084;52.482;9.108;2022-11-30T04:26:04;4.80;99.90
21844;DHT22;11084;52.482;9.108;2022-11-30T04:28:31;4.80;99.90
21844;DHT22;11084;52.482;9.108;2022-11-30T04:30:58;4.80;99.90
21844;DHT22;11084;52.482;9.108;2022-11-30T04:33:25;4.80;99.90
21844;DHT22;11084;52.482;9.108;2022-11-30T04:35:55;4.80;99.90
21844;DHT22;11084;52.482;9.108;2022-11-30T04:38:26;4.80;99.90
21844;DHT22;11084;52.482;9.108;2022-11-30T04:40:53;4.80;99.90
21844;DHT22;11084;52.482;9.108;2022-11-30T04:43:20;4.80;99.90
21844;DHT22;11084;52.482;9.108;2022-11-30T04:45:46;4.80;99.90
21844;DHT22;11084;52.482;9.108;2022-11-30T04:48:13;4.80;99.90
21844;DHT22;11084;52.482;9.108;2022-11-30T04:50:39;4.70;99.90
21844;DHT22;11084;52.482;9.108;2022-11-30T04:53:06;4.80;99.90
21844;DHT22;11084;52.482;9.108;2022-11-30T04:55:32;4.70;99.90
21844;DHT22;11084;52.482;9.108;2022-11-30T04:57:58;4.70;99.90
21844;DHT22;11084;52.482;9.108;2022-11-30T05:00:24;4.70;99.90
21844;DHT22;11084;52.482;9.108;2022-11-30T05:02:51;4.70;99.90
21844;DHT22;11084;52.482;9.108;2022-11-30T05:05:17;4.70;99.90
21844;DHT22;11084;52.482;9.108;2022-11-30T05:07:43;4.70;99.90
21844;DHT22;11084;52.482;9.108;2022-11-30T05:10:09;4.70;99.90
21844;DHT22;11084;52.482;9.108;2022-11-30T05:15:02;4.70;99.90
21844;DHT22;11084;52.482;9.108;2022-11-30T05:17:28;4.70;99.90
21844;DHT22;11084;52.482;9.108;2022-11-30T05:19:54;4.70;99.90
21844;DHT22;11084;52.482;9.108;2022-11-30T05:22:20;4.70;99.90
21844;DHT22;11084;52.482;9.108;2022-11-30T05:24:46;4.70;99.90
21844;DHT22;11084;52.482;9.108;2022-11-30T05:27:12;4.70;99.90
21844;DHT22;11084;52.482;9.108;2022-11-30T05:32:04;4.70;99.90
21844;DHT22;11084;52.482;9.108;2022-11-30T05:34:30;4.70;99.90
21844;DHT22;11084;52.482;9.108;2022-11-30T05:39:22;4.70;99.90
21844;DHT22;11084;52.482;9.108;2022-11-30T05:44:14;4.60;99.90
21844;DHT22;11084;52.482;9.108;2022-11-30T05:46:40;4.60;99.90
21844;DHT22;11084;52.482;9.108;2022-11-30T05:49:06;4.60;99.90
21844;DHT22;11084;52.482;9.108;2022-11-30T05:51:32;4.60;99.90
21844;DHT22;11084;52.482;9.108;2022-11-30T05:54:01;4.60;99.90
21844;DHT22;11084;52.482;9.108;2022-11-30T05:56:27;4.60;99.90
21844;DHT22;11084;52.482;9.108;2022-11-30T05:58:53;4.70;99.90
21844;DHT22;11084;52.482;9.108;2022-11-30T06:01:20;4.60;99.90
21844;DHT22;11084;52.482;9.108;2022-11-30T06:03:50;4.70;99.90
21844;DHT22;11084;52.482;9.108;2022-11-30T06:08:43;4.60;99.90
21844;DHT22;11084;52.482;9.108;2022-11-30T06:11:10;4.60;99.90
21844;DHT22;11084;52.482;9.108;2022-11-30T06:13:38;4.60;99.90
21844;DHT22;11084;52.482;9.108;2022-11-30T06:16:05;4.70;99.90
21844;DHT22;11084;52.482;9.108;2022-11-30T06:21:00;4.70;99.90
21844;DHT22;11084;52.482;9.108;2022-11-30T06:23:27;4.60;99.90
21844;DHT22;11084;52.482;9.108;2022-11-30T06:25:53;4.70;99.90
21844;DHT22;11084;52.482;9.108;2022-11-30T06:28:19;4.60;99.90
21844;DHT22;11084;52.482;9.108;2022-11-30T06:30:45;4.60;99.90
21844;DHT22;11084;52.482;9.108;2022-11-30T06:35:46;4.60;99.90
21844;DHT22;11084;52.482;9.108;2022-11-30T06:38:12;4.70;99.90
21844;DHT22;11084;52.482;9.108;2022-11-30T06:40:38;4.60;99.90
21844;DHT22;11084;52.482;9.108;2022-11-30T06:43:05;4.60;99.90
21844;DHT22;11084;52.482;9.108;2022-11-30T06:45:31;4.60;99.90
21844;DHT22;11084;52.482;9.108;2022-11-30T06:47:57;4.60;99.90
21844;DHT22;11084;52.482;9.108;2022-11-30T06:50:23;4.70;99.90
21844;DHT22;11084;52.482;9.108;2022-11-30T06:57:42;4.60;99.90
21844;DHT22;11084;52.482;9.108;2022-11-30T07:00:09;4.60;99.90
21844;DHT22;11084;52.482;9.108;2022-11-30T07:02:37;4.60;99.90
21844;DHT22;11084;52.482;9.108;2022-11-30T07:05:03;4.60;99.90
21844;DHT22;11084;52.482;9.108;2022-11-30T07:07:30;4.60;99.90
21844;DHT22;11084;52.482;9.108;2022-11-30T07:09:57;4.60;99.90
21844;DHT22;11084;52.482;9.108;2022-11-30T07:12:23;4.60;99.90
21844;DHT22;11084;52.482;9.108;2022-11-30T07:14:50;4.60;99.90
21844;DHT22;11084;52.482;9.108;2022-11-30T07:17:23;4.60;99.90
21844;DHT22;11084;52.482;9.108;2022-11-30T07:19:48;4.60;99.90
21844;DHT22;11084;52.482;9.108;2022-11-30T07:22:14;4.60;99.90
21844;DHT22;11084;52.482;9.108;2022-11-30T07:24:40;4.60;99.90
21844;DHT22;11084;52.482;9.108;2022-11-30T07:27:24;4.60;99.90
21844;DHT22;11084;52.482;9.108;2022-11-30T07:29:51;4.60;99.90
21844;DHT22;11084;52.482;9.108;2022-11-30T07:32:17;4.60;99.90
21844;DHT22;11084;52.482;9.108;2022-11-30T07:34:44;4.60;99.90
21844;DHT22;11084;52.482;9.108;2022-11-30T07:37:10;4.60;99.90
21844;DHT22;11084;52.482;9.108;2022-11-30T07:39:36;4.50;99.90
21844;DHT22;11084;52.482;9.108;2022-11-30T07:42:02;4.50;99.90
21844;DHT22;11084;52.482;9.108;2022-11-30T07:44:30;4.50;99.90
21844;DHT22;11084;52.482;9.108;2022-11-30T07:46:57;4.50;99.90
21844;DHT22;11084;52.482;9.108;2022-11-30T07:49:23;4.50;99.90
21844;DHT22;11084;52.482;9.108;2022-11-30T07:51:49;4.50;99.90
21844;DHT22;11084;52.482;9.108;2022-11-30T07:54:15;4.50;99.90
21844;DHT22;11084;52.482;9.108;2022-11-30T07:56:44;4.50;99.90
21844;DHT22;11084;52.482;9.108;2022-11-30T07:59:10;4.50;99.90
21844;DHT22;11084;52.482;9.108;2022-11-30T08:01:35;4.50;99.90
21844;DHT22;11084;52.482;9.108;2022-11-30T08:04:02;4.50;99.90
21844;DHT22;11084;52.482;9.108;2022-11-30T08:06:30;4.50;99.90
21844;DHT22;11084;52.482;9.108;2022-11-30T08:08:59;4.50;99.90
21844;DHT22;11084;52.482;9.108;2022-11-30T08:11:31;4.50;99.90
21844;DHT22;11084;52.482;9.108;2022-11-30T08:14:00;4.50;99.90
21844;DHT22;11084;52.482;9.108;2022-11-30T08:16:28;4.40;99.90
21844;DHT22;11084;52.482;9.108;2022-11-30T08:18:56;4.40;99.90
21844;DHT22;11084;52.482;9.108;2022-11-30T08:21:22;4.40;99.90
21844;DHT22;11084;52.482;9.108;2022-11-30T08:23:53;4.50;99.90
21844;DHT22;11084;52.482;9.108;2022-11-30T08:26:23;4.50;99.90
21844;DHT22;11084;52.482;9.108;2022-11-30T08:28:53;4.50;99.90
21844;DHT22;11084;52.482;9.108;2022-11-30T08:31:23;4.40;99.90
21844;DHT22;11084;52.482;9.108;2022-11-30T08:33:55;4.40;99.90
21844;DHT22;11084;52.482;9.108;2022-11-30T08:36:24;4.40;99.90
21844;DHT22;11084;52.482;9.108;2022-11-30T08:38:50;4.40;99.90
21844;DHT22;11084;52.482;9.108;2022-11-30T08:41:19;4.40;99.90
21844;DHT22;11084;52.482;9.108;2022-11-30T08:43:46;4.40;99.90
21844;DHT22;11084;52.482;9.108;2022-11-30T08:46:15;4.50;99.90
21844;DHT22;11084;52.482;9.108;2022-11-30T08:48:42;4.50;99.90
21844;DHT22;11084;52.482;9.108;2022-11-30T08:51:10;4.50;99.90
21844;DHT22;11084;52.482;9.108;2022-11-30T08:53:38;4.50;99.90
21844;DHT22;11084;52.482;9.108;2022-11-30T08:56:07;4.50;99.90
21844;DHT22;11084;52.482;9.108;2022-11-30T08:58:38;4.50;99.90
21844;DHT22;11084;52.482;9.108;2022-11-30T09:01:25;4.50;99.90
21844;DHT22;11084;52.482;9.108;2022-11-30T09:03:53;4.50;99.90
21844;DHT22;11084;52.482;9.108;2022-11-30T09:06:22;4.50;99.90
21844;DHT22;11084;52.482;9.108;2022-11-30T09:08:54;4.60;99.90
21844;DHT22;11084;52.482;9.108;2022-11-30T09:11:24;4.50;99.90
21844;DHT22;11084;52.482;9.108;2022-11-30T09:13:54;4.60;99.90
21844;DHT22;11084;52.482;9.108;2022-11-30T09:16:22;4.50;99.90
21844;DHT22;11084;52.482;9.108;2022-11-30T09:18:49;4.60;99.90
21844;DHT22;11084;52.482;9.108;2022-11-30T09:21:21;4.70;99.90
21844;DHT22;11084;52.482;9.108;2022-11-30T09:23:49;4.70;99.90
21844;DHT22;11084;52.482;9.108;2022-11-30T09:26:18;5.80;99.90
21844;DHT22;11084;52.482;9.108;2022-11-30T09:28:45;4.60;99.90
21844;DHT22;11084;52.482;9.108;2022-11-30T09:31:17;4.70;99.90
21844;DHT22;11084;52.482;9.108;2022-11-30T09:33:45;4.70;99.90
21844;DHT22;11084;52.482;9.108;2022-11-30T09:36:16;4.60;99.90
21844;DHT22;11084;52.482;9.108;2022-11-30T09:38:45;4.60;99.90
21844;DHT22;11084;52.482;9.108;2022-11-30T09:44:33;4.70;99.90
21844;DHT22;11084;52.482;9.108;2022-11-30T09:49:46;4.70;99.90
21844;DHT22;11084;52.482;9.108;2022-11-30T09:52:43;4.70;99.90
21844;DHT22;11084;52.482;9.108;2022-11-30T09:55:16;4.70;99.90
21844;DHT22;11084;52.482;9.108;2022-11-30T09:57:53;4.80;99.90
21844;DHT22;11084;52.482;9.108;2022-11-30T10:00:23;4.80;99.90
21844;DHT22;11084;52.482;9.108;2022-11-30T10:02:51;4.80;99.90
21844;DHT22;11084;52.482;9.108;2022-11-30T10:05:32;4.80;99.90
21844;DHT22;11084;52.482;9.108;2022-11-30T10:16:40;4.90;99.90
21844;DHT22;11084;52.482;9.108;2022-11-30T10:27:53;4.90;99.90
21844;DHT22;11084;52.482;9.108;2022-11-30T10:30:25;4.10;99.90
21844;DHT22;11084;52.482;9.108;2022-11-30T10:33:02;4.90;99.90
21844;DHT22;11084;52.482;9.108;2022-11-30T10:35:58;4.90;99.90
21844;DHT22;11084;52.482;9.108;2022-11-30T10:38:33;5.00;99.90
21844;DHT22;11084;52.482;9.108;2022-11-30T10:41:27;5.00;99.90
21844;DHT22;11084;52.482;9.108;2022-11-30T10:46:59;5.00;99.90
21844;DHT22;11084;52.482;9.108;2022-11-30T10:49:29;5.10;99.90
21844;DHT22;11084;52.482;9.108;2022-11-30T10:52:02;5.10;99.90
21844;DHT22;11084;52.482;9.108;2022-11-30T10:54:31;5.10;99.90
21844;DHT22;11084;52.482;9.108;2022-11-30T10:57:01;5.10;99.90
21844;DHT22;11084;52.482;9.108;2022-11-30T10:59:40;5.20;99.90
21844;DHT22;11084;52.482;9.108;2022-11-30T11:02:39;5.20;99.90
21844;DHT22;11084;52.482;9.108;2022-11-30T11:05:29;5.20;99.90
21844;DHT22;11084;52.482;9.108;2022-11-30T11:08:16;5.20;99.90
21844;DHT22;11084;52.482;9.108;2022-11-30T11:10:47;5.20;99.90
21844;DHT22;11084;52.482;9.108;2022-11-30T11:13:20;5.20;99.90
21844;DHT22;11084;52.482;9.108;2022-11-30T11:16:00;5.20;99.90
21844;DHT22;11084;52.482;9.108;2022-11-30T11:18:27;5.20;99.90
21844;DHT22;11084;52.482;9.108;2022-11-30T11:21:03;5.20;99.90
21844;DHT22;11084;52.482;9.108;2022-11-30T11:23:38;5.30;99.90
21844;DHT22;11084;52.482;9.108;2022-11-30T11:26:08;5.30;99.90
21844;DHT22;11084;52.482;9.108;2022-11-30T11:28:46;5.20;99.90
21844;DHT22;11084;52.482;9.108;2022-11-30T11:31:36;5.30;99.90
21844;DHT22;11084;52.482;9.108;2022-11-30T11:34:23;5.30;99.90
21844;DHT22;11084;52.482;9.108;2022-11-30T11:40:17;5.30;99.90
21844;DHT22;11084;52.482;9.108;2022-11-30T11:42:51;5.30;99.90
21844;DHT22;11084;52.482;9.108;2022-11-30T11:45:25;5.30;99.90
21844;DHT22;11084;52.482;9.108;2022-11-30T11:48:01;5.30;99.90
21844;DHT22;11084;52.482;9.108;2022-11-30T11:50:35;5.30;99.90
21844;DHT22;11084;52.482;9.108;2022-11-30T11:56:17;5.40;99.90
21844;DHT22;11084;52.482;9.108;2022-11-30T11:58:59;5.40;99.90
21844;DHT22;11084;52.482;9.108;2022-11-30T12:04:43;5.40;99.90
21844;DHT22;11084;52.482;9.108;2022-11-30T12:07:24;5.40;99.90
21844;DHT22;11084;52.482;9.108;2022-11-30T12:12:52;5.40;99.90
21844;DHT22;11084;52.482;9.108;2022-11-30T12:18:44;5.40;99.90
21844;DHT22;11084;52.482;9.108;2022-11-30T12:21:35;5.40;99.90
21844;DHT22;11084;52.482;9.108;2022-11-30T12:30:35;5.40;99.90
21844;DHT22;11084;52.482;9.108;2022-11-30T12:39:34;5.40;99.90
21844;DHT22;11084;52.482;9.108;2022-11-30T12:42:14;5.40;99.90
21844;DHT22;11084;52.482;9.108;2022-11-30T12:50:40;5.40;99.90
21844;DHT22;11084;52.482;9.108;2022-11-30T12:59:38;5.50;99.90
21844;DHT22;11084;52.482;9.108;2022-11-30T13:04:53;5.40;99.90
21844;DHT22;11084;52.482;9.108;2022-11-30T13:07:33;5.40;99.90
21844;DHT22;11084;52.482;9.108;2022-11-30T13:12:55;5.50;99.90
21844;DHT22;11084;52.482;9.108;2022-11-30T13:15:28;5.50;99.90
21844;DHT22;11084;52.482;9.108;2022-11-30T13:17:56;5.50;99.90
21844;DHT22;11084;52.482;9.108;2022-11-30T13:20:32;5.50;99.90
21844;DHT22;11084;52.482;9.108;2022-11-30T13:26:07;5.60;99.90
21844;DHT22;11084;52.482;9.108;2022-11-30T13:28:47;5.60;99.90
21844;DHT22;11084;52.482;9.108;2022-11-30T13:31:32;5.60;99.90
21844;DHT22;11084;52.482;9.108;2022-11-30T13:34:02;5.50;99.90
21844;DHT22;11084;52.482;9.108;2022-11-30T13:36:30;5.50;99.90
21844;DHT22;11084;52.482;9.108;2022-11-30T13:44:34;9.20;99.90
21844;DHT22;11084;52.482;9.108;2022-11-30T13:47:32;5.50;99.90
21844;DHT22;11084;52.482;9.108;2022-11-30T13:55:50;5.50;99.90
21844;DHT22;11084;52.482;9.108;2022-11-30T13:58:33;5.50;99.90
21844;DHT22;11084;52.482;9.108;2022-11-30T14:01:22;5.40;99.90
21844;DHT22;11084;52.482;9.108;2022-11-30T14:06:48;5.40;99.90
21844;DHT22;11084;52.482;9.108;2022-11-30T14:10:00;5.40;99.90
21844;DHT22;11084;52.482;9.108;2022-11-30T14:20:51;5.40;99.90
21844;DHT22;11084;52.482;9.108;2022-11-30T14:23:32;5.40;99.90
21844;DHT22;11084;52.482;9.108;2022-11-30T14:26:14;5.40;99.90
21844;DHT22;11084;52.482;9.108;2022-11-30T14:31:36;5.40;99.90
21844;DHT22;11084;52.482;9.108;2022-11-30T14:37:39;5.40;99.90
21844;DHT22;11084;52.482;9.108;2022-11-30T14:39:45;5.40;99.90
21844;DHT22;11084;52.482;9.108;2022-11-30T14:42:44;5.40;99.90
21844;DHT22;11084;52.482;9.108;2022-11-30T14:45:35;5.40;99.90
21844;DHT22;11084;52.482;9.108;2022-11-30T14:48:13;5.30;99.90
21844;DHT22;11084;52.482;9.108;2022-11-30T14:50:50;5.30;99.90
21844;DHT22;11084;52.482;9.108;2022-11-30T14:53:54;5.30;99.90
21844;DHT22;11084;52.482;9.108;2022-11-30T14:56:46;5.30;99.90
21844;DHT22;11084;52.482;9.108;2022-11-30T15:02:29;5.20;99.90
21844;DHT22;11084;52.482;9.108;2022-11-30T15:05:00;5.20;99.90
21844;DHT22;11084;52.482;9.108;2022-11-30T15:07:27;5.30;99.90
21844;DHT22;11084;52.482;9.108;2022-11-30T15:10:00;5.20;99.90
21844;DHT22;11084;52.482;9.108;2022-11-30T15:12:29;5.30;99.90
21844;DHT22;11084;52.482;9.108;2022-11-30T15:17:56;5.30;99.90
21844;DHT22;11084;52.482;9.108;2022-11-30T15:20:38;5.20;99.90
21844;DHT22;11084;52.482;9.108;2022-11-30T15:23:13;5.20;99.90
21844;DHT22;11084;52.482;9.108;2022-11-30T15:25:47;5.20;99.90
21844;DHT22;11084;52.482;9.108;2022-11-30T15:28:18;5.20;99.90
21844;DHT22;11084;52.482;9.108;2022-11-30T15:30:51;5.20;99.90
21844;DHT22;11084;52.482;9.108;2022-11-30T15:33:21;5.20;99.90
21844;DHT22;11084;52.482;9.108;2022-11-30T15:35:50;5.20;99.90
21844;DHT22;11084;52.482;9.108;2022-11-30T15:38:21;5.20;99.90
21844;DHT22;11084;52.482;9.108;2022-11-30T15:40:49;5.10;99.90
21844;DHT22;11084;52.482;9.108;2022-11-30T15:43:23;5.10;99.90
21844;DHT22;11084;52.482;9.108;2022-11-30T15:45:57;5.20;99.90
21844;DHT22;11084;52.482;9.108;2022-11-30T15:48:34;5.20;99.90
21844;DHT22;11084;52.482;9.108;2022-11-30T15:51:03;5.20;99.90
21844;DHT22;11084;52.482;9.108;2022-11-30T15:53:30;5.20;99.90
21844;DHT22;11084;52.482;9.108;2022-11-30T15:56:05;5.20;99.90
21844;DHT22;11084;52.482;9.108;2022-11-30T15:58:36;5.20;99.90
21844;DHT22;11084;52.482;9.108;2022-11-30T16:01:08;5.20;99.90
21844;DHT22;11084;52.482;9.108;2022-11-30T16:06:46;5.20;99.90
21844;DHT22;11084;52.482;9.108;2022-11-30T16:11:53;5.20;99.90
21844;DHT22;11084;52.482;9.108;2022-11-30T16:14:22;5.10;99.90
21844;DHT22;11084;52.482;9.108;2022-11-30T16:21:41;5.10;99.90
21844;DHT22;11084;52.482;9.108;2022-11-30T16:24:12;5.10;99.90
21844;DHT22;11084;52.482;9.108;2022-11-30T16:26:39;5.10;99.90
21844;DHT22;11084;52.482;9.108;2022-11-30T16:29:05;5.10;99.90
21844;DHT22;11084;52.482;9.108;2022-11-30T16:31:31;5.10;99.90
21844;DHT22;11084;52.482;9.108;2022-11-30T16:33:57;5.10;99.90
21844;DHT22;11084;52.482;9.108;2022-11-30T16:36:23;5.10;99.90
21844;DHT22;11084;52.482;9.108;2022-11-30T16:38:50;5.10;99.90
21844;DHT22;11084;52.482;9.108;2022-11-30T16:41:20;5.10;99.90
21844;DHT22;11084;52.482;9.108;2022-11-30T16:43:48;5.00;99.90
21844;DHT22;11084;52.482;9.108;2022-11-30T16:46:26;5.10;99.90
21844;DHT22;11084;52.482;9.108;2022-11-30T16:48:53;5.00;99.90
21844;DHT22;11084;52.482;9.108;2022-11-30T16:53:54;5.00;99.90
21844;DHT22;11084;52.482;9.108;2022-11-30T16:56:20;5.00;99.90
21844;DHT22;11084;52.482;9.108;2022-11-30T16:58:47;5.00;99.90
21844;DHT22;11084;52.482;9.108;2022-11-30T17:01:40;5.00;99.90
21844;DHT22;11084;52.482;9.108;2022-11-30T17:04:15;5.00;99.90
21844;DHT22;11084;52.482;9.108;2022-11-30T17:06:41;5.00;99.90
21844;DHT22;11084;52.482;9.108;2022-11-30T17:09:12;5.00;99.90
21844;DHT22;11084;52.482;9.108;2022-11-30T17:11:39;5.00;99.90
21844;DHT22;11084;52.482;9.108;2022-11-30T17:14:06;4.90;99.90
21844;DHT22;11084;52.482;9.108;2022-11-30T17:16:32;5.00;99.90
21844;DHT22;11084;52.482;9.108;2022-11-30T17:18:58;5.00;99.90
21844;DHT22;11084;52.482;9.108;2022-11-30T17:21:29;5.00;99.90
21844;DHT22;11084;52.482;9.108;2022-11-30T17:23:58;5.00;99.90
21844;DHT22;11084;52.482;9.108;2022-11-30T17:26:24;4.90;99.90
21844;DHT22;11084;52.482;9.108;2022-11-30T17:28:50;5.00;99.90
21844;DHT22;11084;52.482;9.108;2022-11-30T17:33:43;4.90;99.90
21844;DHT22;11084;52.482;9.108;2022-11-30T17:36:11;4.90;99.90
21844;DHT22;11084;52.482;9.108;2022-11-30T17:38:39;4.90;99.90
21844;DHT22;11084;52.482;9.108;2022-11-30T17:41:08;4.90;99.90
21844;DHT22;11084;52.482;9.108;2022-11-30T17:43:36;4.90;99.90
21844;DHT22;11084;52.482;9.108;2022-11-30T17:46:08;5.00;99.90
21844;DHT22;11084;52.482;9.108;2022-11-30T17:48:36;5.00;99.90
21844;DHT22;11084;52.482;9.108;2022-11-30T17:51:03;5.00;99.90
21844;DHT22;11084;52.482;9.108;2022-11-30T17:53:29;5.00;99.90
21844;DHT22;11084;52.482;9.108;2022-11-30T17:56:10;5.00;99.90
21844;DHT22;11084;52.482;9.108;2022-11-30T17:58:41;5.00;99.90
21844;DHT22;11084;52.482;9.108;2022-11-30T18:03:48;5.00;99.90
21844;DHT22;11084;52.482;9.108;2022-11-30T18:06:15;4.90;99.90
21844;DHT22;11084;52.482;9.108;2022-11-30T18:08:41;5.00;99.90
21844;DHT22;11084;52.482;9.108;2022-11-30T18:11:13;5.00;99.90
21844;DHT22;11084;52.482;9.108;2022-11-30T18:13:43;4.90;99.90
21844;DHT22;11084;52.482;9.108;2022-11-30T18:16:12;6.50;99.90
21844;DHT22;11084;52.482;9.108;2022-11-30T18:18:39;4.90;99.90
21844;DHT22;11084;52.482;9.108;2022-11-30T18:21:08;4.90;99.90
21844;DHT22;11084;52.482;9.108;2022-11-30T18:23:35;4.90;99.90
21844;DHT22;11084;52.482;9.108;2022-11-30T18:26:03;4.90;99.90
21844;DHT22;11084;52.482;9.108;2022-11-30T18:28:31;4.90;99.90
21844;DHT22;11084;52.482;9.108;2022-11-30T18:33:23;4.90;99.90
21844;DHT22;11084;52.482;9.108;2022-11-30T18:35:49;4.90;99.90
21844;DHT22;11084;52.482;9.108;2022-11-30T18:38:16;4.90;99.90
21844;DHT22;11084;52.482;9.108;2022-11-30T18:40:43;4.90;99.90
21844;DHT22;11084;52.482;9.108;2022-11-30T18:43:08;4.90;99.90
21844;DHT22;11084;52.482;9.108;2022-11-30T18:45:34;4.90;99.90
21844;DHT22;11084;52.482;9.108;2022-11-30T18:48:04;4.80;99.90
21844;DHT22;11084;52.482;9.108;2022-11-30T18:50:31;4.90;99.90
21844;DHT22;11084;52.482;9.108;2022-11-30T18:52:57;4.80;99.90
21844;DHT22;11084;52.482;9.108;2022-11-30T18:55:24;4.80;99.90
21844;DHT22;11084;52.482;9.108;2022-11-30T18:57:51;4.90;99.90
21844;DHT22;11084;52.482;9.108;2022-11-30T19:00:17;4.90;99.90
21844;DHT22;11084;52.482;9.108;2022-11-30T19:02:46;4.90;99.90
21844;DHT22;11084;52.482;9.108;2022-11-30T19:05:13;4.90;99.90
21844;DHT22;11084;52.482;9.108;2022-11-30T19:08:01;4.80;99.90
21844;DHT22;11084;52.482;9.108;2022-11-30T19:10:34;4.80;99.90
21844;DHT22;11084;52.482;9.108;2022-11-30T19:13:01;4.80;99.90
21844;DHT22;11084;52.482;9.108;2022-11-30T19:15:29;4.80;99.90
21844;DHT22;11084;52.482;9.108;2022-11-30T19:17:56;4.80;99.90
21844;DHT22;11084;52.482;9.108;2022-11-30T19:20:22;4.90;99.90